Time;durP1;ratioP1;P1;durP2;ratioP2;P2;SDS_P1;SDS_P2;PMS_P1;PMS_P2;Temp;Humidity;BMP_temperature;BMP_pressure;BME280_temperature;BME280_humidity;BME280_pressure;Samples;Min_cycle;Max_cycle;Signal;HPM_P1;HPM_P2
2022/03/22 00:00:05;;;;;;;;;;;10.20;72.40;;;;;;4974548;28;19913;-68
2022/03/22 00:02:31;;;;;;;;;;;10.30;72.10;;;;;;4974964;28;20411;-68
2022/03/22 00:04:56;;;;;;;;;;;10.10;72.30;;;;;;4974244;28;20111;-68
2022/03/22 00:07:22;;;;;;;;;;;10.10;72.60;;;;;;4975627;28;20292;-67
2022/03/22 00:09:47;;;;;;;;;;;10.10;72.60;;;;;;4973217;28;19946;-68
2022/03/22 00:12:13;;;;;;;;;;;10.00;72.70;;;;;;4974014;28;20379;-68
2022/03/22 00:14:39;;;;;;;;;;;10.10;72.60;;;;;;4974766;28;20324;-68
2022/03/22 00:17:05;;;;;;;;;;;10.00;72.80;;;;;;4974149;28;19930;-67
2022/03/22 00:19:31;;;;;;;;;;;10.00;73.00;;;;;;4973794;28;20339;-67
2022/03/22 00:21:57;;;;;;;;;;;9.90;73.40;;;;;;4975359;28;20058;-67
2022/03/22 00:24:22;;;;;;;;;;;9.80;73.20;;;;;;4973396;28;19922;-67
2022/03/22 00:26:48;;;;;;;;;;;9.80;73.10;;;;;;4980864;28;19918;-68
2022/03/22 00:29:13;;;;;;;;;;;9.70;73.10;;;;;;4976856;28;19956;-68
2022/03/22 00:31:39;;;;;;;;;;;9.80;73.50;;;;;;4993898;28;20005;-68
2022/03/22 00:34:05;;;;;;;;;;;9.70;73.60;;;;;;4994662;28;19906;-69
2022/03/22 00:36:32;;;;;;;;;;;9.70;73.80;;;;;;4994583;28;19905;-67
2022/03/22 00:38:57;;;;;;;;;;;9.60;74.00;;;;;;4976075;28;19918;-68
2022/03/22 00:41:23;;;;;;;;;;;9.60;74.20;;;;;;4993878;28;19906;-67
2022/03/22 00:43:48;;;;;;;;;;;9.70;73.50;;;;;;4975671;28;20258;-67
2022/03/22 00:46:14;;;;;;;;;;;9.50;73.80;;;;;;4976236;28;19917;-68
2022/03/22 00:48:40;;;;;;;;;;;9.60;74.00;;;;;;4975822;28;20004;-68
2022/03/22 00:51:06;;;;;;;;;;;9.70;73.90;;;;;;4976025;28;19906;-70
2022/03/22 00:53:32;;;;;;;;;;;9.60;73.80;;;;;;4975151;28;19921;-67
2022/03/22 00:56:00;;;;;;;;;;;9.50;73.50;;;;;;4975392;28;19906;-68
2022/03/22 00:58:26;;;;;;;;;;;9.50;74.10;;;;;;4976174;28;20282;-68
2022/03/22 01:00:52;;;;;;;;;;;9.40;74.10;;;;;;4975616;28;20052;-67
2022/03/22 01:03:17;;;;;;;;;;;9.40;74.40;;;;;;4993492;28;19917;-67
2022/03/22 01:05:43;;;;;;;;;;;9.30;74.70;;;;;;4992960;28;20347;-67
2022/03/22 01:08:10;;;;;;;;;;;9.30;74.80;;;;;;4993785;28;20004;-67
2022/03/22 01:10:37;;;;;;;;;;;9.30;74.80;;;;;;4992891;28;20279;-69
2022/03/22 01:13:04;;;;;;;;;;;9.30;75.20;;;;;;4975756;28;19936;-67
2022/03/22 01:15:34;;;;;;;;;;;9.30;75.30;;;;;;4993810;28;19913;-68
2022/03/22 01:18:05;;;;;;;;;;;9.30;75.00;;;;;;4993232;28;19906;-67
2022/03/22 01:20:31;;;;;;;;;;;9.40;74.80;;;;;;4975911;28;19914;-68
2022/03/22 01:22:56;;;;;;;;;;;9.30;75.00;;;;;;4992666;28;19929;-68
2022/03/22 01:25:25;;;;;;;;;;;9.20;75.10;;;;;;4993181;28;19945;-68
2022/03/22 01:27:51;;;;;;;;;;;9.20;75.20;;;;;;4992716;28;19922;-68
2022/03/22 01:30:22;;;;;;;;;;;9.20;75.60;;;;;;4974940;28;20205;-68
2022/03/22 01:32:51;;;;;;;;;;;9.10;75.80;;;;;;4992430;28;19993;-68
2022/03/22 01:35:17;;;;;;;;;;;9.10;75.80;;;;;;4993131;28;19909;-69
2022/03/22 01:37:44;;;;;;;;;;;9.00;75.80;;;;;;4974984;28;19912;-67
2022/03/22 01:40:10;;;;;;;;;;;9.00;75.80;;;;;;4993259;28;19905;-68
2022/03/22 01:42:36;;;;;;;;;;;9.00;75.60;;;;;;4992741;28;19953;-67
2022/03/22 01:45:03;;;;;;;;;;;9.00;76.30;;;;;;4992309;28;20370;-68
2022/03/22 01:47:28;;;;;;;;;;;9.00;76.10;;;;;;4975175;28;20405;-68
2022/03/22 01:49:54;;;;;;;;;;;8.90;76.20;;;;;;4974555;28;19906;-66
2022/03/22 01:52:21;;;;;;;;;;;8.90;76.70;;;;;;4992448;28;19909;-67
2022/03/22 01:54:49;;;;;;;;;;;8.90;76.90;;;;;;4974535;28;19960;-69
2022/03/22 01:57:14;;;;;;;;;;;8.80;76.90;;;;;;4992664;28;19913;-67
2022/03/22 01:59:40;;;;;;;;;;;8.80;77.40;;;;;;4991993;28;19965;-68
2022/03/22 02:07:35;;;;;;;;;;;8.80;78.10;;;;;;4992075;28;20009;-67
2022/03/22 02:10:01;;;;;;;;;;;8.70;78.40;;;;;;4973949;28;19906;-68
2022/03/22 02:12:26;;;;;;;;;;;8.60;78.60;;;;;;4974739;28;19913;-67
2022/03/22 02:14:52;;;;;;;;;;;8.60;78.40;;;;;;4991674;28;19906;-67
2022/03/22 02:17:18;;;;;;;;;;;8.70;78.70;;;;;;4974523;28;19952;-68
2022/03/22 02:19:43;;;;;;;;;;;8.60;78.80;;;;;;4974149;28;20004;-68
2022/03/22 02:22:12;;;;;;;;;;;8.60;79.00;;;;;;4974664;28;19937;-67
2022/03/22 02:24:38;;;;;;;;;;;8.60;79.30;;;;;;4974460;28;19918;-68
2022/03/22 02:27:06;;;;;;;;;;;8.60;79.30;;;;;;5005071;28;20439;-67
2022/03/22 02:29:31;;;;;;;;;;;8.60;79.20;;;;;;4994017;28;19999;-67
2022/03/22 02:31:57;;;;;;;;;;;8.50;79.70;;;;;;4993535;28;19956;-68
2022/03/22 02:34:22;;;;;;;;;;;8.50;79.10;;;;;;4994084;28;19952;-67
2022/03/22 02:36:48;;;;;;;;;;;8.50;79.20;;;;;;5010859;28;19913;-67
2022/03/22 02:39:14;;;;;;;;;;;8.50;79.20;;;;;;4994111;28;19905;-67
2022/03/22 02:41:39;;;;;;;;;;;8.40;79.20;;;;;;5012140;28;19905;-67
2022/03/22 02:44:05;;;;;;;;;;;8.30;79.40;;;;;;5011760;28;19915;-67
2022/03/22 02:46:31;;;;;;;;;;;8.30;79.60;;;;;;5026755;28;20025;-67
2022/03/22 02:48:56;;;;;;;;;;;8.30;79.30;;;;;;5026120;28;19906;-67
2022/03/22 02:51:22;;;;;;;;;;;8.30;78.90;;;;;;5011659;28;20204;-67
2022/03/22 02:53:47;;;;;;;;;;;8.30;78.80;;;;;;5010897;28;19996;-67
2022/03/22 02:56:13;;;;;;;;;;;8.20;79.10;;;;;;4993952;28;19929;-67
2022/03/22 02:58:38;;;;;;;;;;;8.10;79.40;;;;;;5011510;28;19988;-67
2022/03/22 03:01:04;;;;;;;;;;;8.20;79.60;;;;;;4993291;28;19980;-68
2022/03/22 03:03:29;;;;;;;;;;;8.10;79.40;;;;;;5026629;28;19920;-68
2022/03/22 03:05:55;;;;;;;;;;;8.10;79.80;;;;;;4993292;28;19910;-67
2022/03/22 03:08:21;;;;;;;;;;;8.10;79.40;;;;;;5026404;28;20009;-68
2022/03/22 03:10:47;;;;;;;;;;;8.10;79.70;;;;;;5010806;28;19960;-68
2022/03/22 03:13:12;;;;;;;;;;;8.10;79.90;;;;;;5026283;28;20295;-68
2022/03/22 03:15:39;;;;;;;;;;;8.10;80.10;;;;;;4994604;28;19905;-67
2022/03/22 03:18:04;;;;;;;;;;;7.90;80.60;;;;;;4996577;28;19906;-67
2022/03/22 03:20:30;;;;;;;;;;;8.00;80.80;;;;;;5030100;28;19909;-68
2022/03/22 03:22:56;;;;;;;;;;;7.80;80.80;;;;;;5014508;28;19905;-67
2022/03/22 03:25:21;;;;;;;;;;;7.80;81.10;;;;;;5014457;28;19913;-67
2022/03/22 03:27:47;;;;;;;;;;;7.80;81.00;;;;;;5028960;28;19921;-69
2022/03/22 03:30:13;;;;;;;;;;;7.80;81.50;;;;;;5014781;28;20254;-67
2022/03/22 03:32:39;;;;;;;;;;;7.80;81.90;;;;;;4997288;28;19925;-67
2022/03/22 03:35:04;;;;;;;;;;;7.80;82.00;;;;;;5013861;28;19909;-68
2022/03/22 03:37:36;;;;;;;;;;;7.80;82.40;;;;;;5014659;28;20325;-67
2022/03/22 03:40:06;;;;;;;;;;;7.80;82.30;;;;;;4996237;28;19924;-68
2022/03/22 03:42:31;;;;;;;;;;;7.90;82.80;;;;;;4996920;28;19956;-68
2022/03/22 03:47:41;;;;;;;;;;;7.60;83.10;;;;;;5014198;28;19915;-68
2022/03/22 03:50:07;;;;;;;;;;;7.60;83.40;;;;;;4996087;28;19906;-67
2022/03/22 03:52:36;;;;;;;;;;;7.60;83.20;;;;;;5014620;28;19952;-67
2022/03/22 03:55:04;;;;;;;;;;;7.60;83.50;;;;;;5013409;28;19917;-68
2022/03/22 03:57:29;;;;;;;;;;;7.60;83.70;;;;;;4996229;28;19916;-68
2022/03/22 03:59:56;;;;;;;;;;;7.60;84.10;;;;;;4996392;28;19906;-67
2022/03/22 04:02:22;;;;;;;;;;;7.70;84.30;;;;;;5014368;28;19925;-67
2022/03/22 04:04:54;;;;;;;;;;;7.70;84.50;;;;;;5013556;28;20215;-67
2022/03/22 04:07:21;;;;;;;;;;;7.60;84.90;;;;;;4996391;28;19929;-68
2022/03/22 04:09:47;;;;;;;;;;;7.40;85.50;;;;;;4995690;28;19992;-68
2022/03/22 04:12:13;;;;;;;;;;;7.40;85.70;;;;;;4996362;28;19959;-67
2022/03/22 04:14:38;;;;;;;;;;;7.40;85.90;;;;;;4996415;28;20311;-68
2022/03/22 04:17:04;;;;;;;;;;;7.40;86.10;;;;;;5028458;28;20008;-68
2022/03/22 04:19:30;;;;;;;;;;;7.30;86.10;;;;;;5013632;28;19906;-68
2022/03/22 04:21:55;;;;;;;;;;;7.40;86.30;;;;;;5013379;28;20007;-68
2022/03/22 04:24:21;;;;;;;;;;;7.40;86.40;;;;;;5013527;28;20056;-67
2022/03/22 04:26:46;;;;;;;;;;;7.30;86.50;;;;;;4995275;28;20298;-68
2022/03/22 04:34:42;;;;;;;;;;;7.20;87.00;;;;;;5013787;28;19913;-68
2022/03/22 04:37:10;;;;;;;;;;;7.20;86.80;;;;;;4995109;28;20000;-67
2022/03/22 04:39:36;;;;;;;;;;;7.10;87.10;;;;;;4995979;28;19996;-67
2022/03/22 04:42:02;;;;;;;;;;;7.00;87.40;;;;;;4995397;28;19999;-68
2022/03/22 04:44:28;;;;;;;;;;;7.00;87.60;;;;;;4995368;28;19914;-68
2022/03/22 04:46:54;;;;;;;;;;;7.00;87.40;;;;;;5012744;28;20355;-67
2022/03/22 04:49:20;;;;;;;;;;;6.90;87.70;;;;;;4995834;28;19916;-67
2022/03/22 04:57:15;;;;;;;;;;;6.90;88.20;;;;;;5013370;28;19975;-68
2022/03/22 04:59:42;;;;;;;;;;;6.60;89.10;;;;;;5013354;28;19957;-68
2022/03/22 05:02:08;;;;;;;;;;;6.60;89.70;;;;;;4994930;28;20139;-67
2022/03/22 05:04:34;;;;;;;;;;;6.80;90.00;;;;;;4995307;28;20255;-67
2022/03/22 05:06:59;;;;;;;;;;;6.80;89.90;;;;;;4994538;28;19945;-67
2022/03/22 05:09:25;;;;;;;;;;;6.80;90.10;;;;;;4995592;28;19906;-67
2022/03/22 05:11:51;;;;;;;;;;;6.70;90.10;;;;;;5012589;28;19909;-66
2022/03/22 05:14:16;;;;;;;;;;;6.70;90.20;;;;;;5013139;28;19906;-68
2022/03/22 05:16:42;;;;;;;;;;;6.60;90.40;;;;;;5013043;28;20346;-67
2022/03/22 05:19:08;;;;;;;;;;;6.70;90.40;;;;;;5012443;28;19912;-67
2022/03/22 05:21:33;;;;;;;;;;;6.70;90.50;;;;;;5012842;28;19999;-69
2022/03/22 05:23:59;;;;;;;;;;;6.50;90.70;;;;;;5027260;28;20278;-67
2022/03/22 05:26:27;;;;;;;;;;;6.50;90.70;;;;;;5027453;28;20378;-68
2022/03/22 05:28:53;;;;;;;;;;;6.60;90.80;;;;;;4994279;28;19964;-68
2022/03/22 05:31:21;;;;;;;;;;;6.60;90.70;;;;;;4995082;28;19913;-68
2022/03/22 05:33:48;;;;;;;;;;;6.70;91.50;;;;;;4995092;28;19905;-68
2022/03/22 05:36:14;;;;;;;;;;;6.60;91.10;;;;;;5012179;28;19952;-69
2022/03/22 05:38:39;;;;;;;;;;;6.60;90.80;;;;;;5026770;28;20321;-66
2022/03/22 05:41:06;;;;;;;;;;;6.60;90.70;;;;;;4993891;28;19956;-67
2022/03/22 05:43:32;;;;;;;;;;;6.50;90.70;;;;;;5027360;28;19913;-67
2022/03/22 05:45:58;;;;;;;;;;;6.60;90.70;;;;;;5011684;28;20343;-66
2022/03/22 05:48:24;;;;;;;;;;;6.60;90.70;;;;;;5012127;28;20130;-67
2022/03/22 05:50:50;;;;;;;;;;;6.70;91.00;;;;;;4994538;28;19905;-67
2022/03/22 05:53:16;;;;;;;;;;;6.70;90.60;;;;;;4993743;28;20326;-67
2022/03/22 05:55:42;;;;;;;;;;;6.70;90.50;;;;;;4994440;28;19933;-66
2022/03/22 05:58:08;;;;;;;;;;;6.80;90.10;;;;;;4993551;28;19909;-67
2022/03/22 06:00:34;;;;;;;;;;;6.80;89.80;;;;;;4994151;28;19905;-67
2022/03/22 06:02:59;;;;;;;;;;;6.90;89.60;;;;;;4991672;28;20024;-66
2022/03/22 06:05:25;;;;;;;;;;;6.90;89.00;;;;;;4982754;28;19918;-68
2022/03/22 06:07:51;;;;;;;;;;;6.80;88.90;;;;;;5009921;28;19910;-67
2022/03/22 06:10:16;;;;;;;;;;;7.20;91.00;;;;;;4977859;28;19960;-67
2022/03/22 06:12:47;;;;;;;;;;;6.90;89.20;;;;;;4981299;28;19983;-68
2022/03/22 06:15:16;;;;;;;;;;;6.90;89.50;;;;;;5011340;28;20029;-68
2022/03/22 06:17:49;;;;;;;;;;;7.10;89.10;;;;;;4994118;28;19906;-67
2022/03/22 06:20:16;;;;;;;;;;;7.20;88.50;;;;;;4977265;28;19997;-68
2022/03/22 06:22:41;;;;;;;;;;;7.10;88.70;;;;;;4986905;28;20011;-68
2022/03/22 06:25:08;;;;;;;;;;;7.20;88.60;;;;;;4991068;28;19944;-67
2022/03/22 06:27:35;;;;;;;;;;;7.20;88.20;;;;;;4970959;28;20009;-70
2022/03/22 06:30:10;;;;;;;;;;;7.30;87.20;;;;;;4974439;28;19914;-68
2022/03/22 06:32:40;;;;;;;;;;;7.40;87.00;;;;;;4973341;28;20312;-67
2022/03/22 06:35:05;;;;;;;;;;;7.30;87.30;;;;;;4970677;28;19957;-67
2022/03/22 06:37:31;;;;;;;;;;;7.40;86.40;;;;;;4970960;28;20350;-69
2022/03/22 06:39:56;;;;;;;;;;;7.40;86.10;;;;;;4970263;28;19906;-68
2022/03/22 06:42:22;;;;;;;;;;;7.40;85.90;;;;;;4985734;28;20235;-68
2022/03/22 06:44:49;;;;;;;;;;;7.40;86.40;;;;;;4991292;28;20224;-67
2022/03/22 06:47:14;;;;;;;;;;;7.40;85.60;;;;;;4989324;28;20120;-68
2022/03/22 06:49:40;;;;;;;;;;;7.60;85.00;;;;;;4990826;28;19914;-68
2022/03/22 06:52:05;;;;;;;;;;;8.00;84.10;;;;;;4992965;28;19905;-68
2022/03/22 06:54:32;;;;;;;;;;;8.30;83.10;;;;;;4988908;28;19933;-67
2022/03/22 06:56:58;;;;;;;;;;;8.50;82.00;;;;;;4992394;28;19914;-68
2022/03/22 06:59:24;;;;;;;;;;;8.70;81.60;;;;;;4983724;28;19960;-68
2022/03/22 07:01:50;;;;;;;;;;;8.90;80.90;;;;;;4992992;28;20335;-68
2022/03/22 07:04:16;;;;;;;;;;;9.50;79.50;;;;;;4992190;28;19933;-67
2022/03/22 07:06:41;;;;;;;;;;;9.90;78.10;;;;;;4993844;28;19960;-68
2022/03/22 07:09:07;;;;;;;;;;;10.30;76.60;;;;;;4990482;28;20300;-67
2022/03/22 07:11:49;;;;;;;;;;;10.50;75.00;;;;;;4993438;28;19913;-67
2022/03/22 07:14:19;;;;;;;;;;;10.70;74.30;;;;;;4994648;28;19989;-68
2022/03/22 07:16:47;;;;;;;;;;;10.90;73.30;;;;;;4992315;28;19949;-67
2022/03/22 07:19:22;;;;;;;;;;;11.20;71.90;;;;;;4986513;28;19910;-67
2022/03/22 07:21:48;;;;;;;;;;;11.60;70.90;;;;;;4979880;28;19913;-67
2022/03/22 07:24:15;;;;;;;;;;;11.90;70.00;;;;;;4984131;28;19918;-67
2022/03/22 07:26:41;;;;;;;;;;;12.00;69.00;;;;;;4979188;28;19934;-71
2022/03/22 07:29:07;;;;;;;;;;;12.00;68.80;;;;;;4985225;28;20250;-70
2022/03/22 07:31:37;;;;;;;;;;;12.80;76.10;;;;;;4988139;28;19929;-70
2022/03/22 07:34:07;;;;;;;;;;;13.00;72.80;;;;;;4983517;28;19910;-71
2022/03/22 07:36:36;;;;;;;;;;;13.40;68.80;;;;;;4975330;28;19907;-68
2022/03/22 07:39:02;;;;;;;;;;;13.70;65.50;;;;;;4989365;28;19906;-70
2022/03/22 07:41:27;;;;;;;;;;;13.60;64.70;;;;;;4975110;28;19914;-69
2022/03/22 07:43:54;;;;;;;;;;;13.40;63.60;;;;;;4989820;28;19914;-68
2022/03/22 07:46:20;;;;;;;;;;;13.60;63.90;;;;;;4973392;28;19969;-79
2022/03/22 07:48:46;;;;;;;;;;;13.80;81.40;;;;;;4989869;28;19963;-76
2022/03/22 07:53:56;;;;;;;;;;;14.50;68.70;;;;;;4987775;28;20369;-69
2022/03/22 07:56:21;;;;;;;;;;;14.60;65.40;;;;;;4984689;28;19913;-68
2022/03/22 07:58:47;;;;;;;;;;;14.80;63.50;;;;;;4983553;28;20332;-68
2022/03/22 08:01:13;;;;;;;;;;;14.60;63.10;;;;;;4985363;28;19925;-67
2022/03/22 08:03:38;;;;;;;;;;;14.70;63.00;;;;;;4987175;28;19935;-68
2022/03/22 08:06:07;;;;;;;;;;;14.80;63.10;;;;;;4986151;28;19906;-71
2022/03/22 08:08:33;;;;;;;;;;;15.30;83.60;;;;;;4982212;28;20008;-70
2022/03/22 08:10:59;;;;;;;;;;;15.20;70.20;;;;;;4987064;28;20355;-70
2022/03/22 08:13:24;;;;;;;;;;;15.50;75.60;;;;;;4983812;28;19964;-69
2022/03/22 08:15:50;;;;;;;;;;;15.80;70.70;;;;;;4978418;28;19918;-67
2022/03/22 08:18:17;;;;;;;;;;;15.90;63.00;;;;;;4983113;28;19907;-68
2022/03/22 08:20:42;;;;;;;;;;;15.80;61.60;;;;;;4983047;28;19910;-67
2022/03/22 08:23:09;;;;;;;;;;;16.10;61.00;;;;;;4982565;28;19956;-67
2022/03/22 08:25:39;;;;;;;;;;;16.30;58.80;;;;;;4983920;28;20371;-66
2022/03/22 08:28:06;;;;;;;;;;;16.50;58.50;;;;;;4986078;28;19917;-67
2022/03/22 08:30:32;;;;;;;;;;;16.60;59.00;;;;;;4987978;28;19909;-67
2022/03/22 08:32:58;;;;;;;;;;;17.10;58.10;;;;;;4985849;28;20008;-71
2022/03/22 08:35:24;;;;;;;;;;;16.90;57.80;;;;;;4986998;28;19910;-69
2022/03/22 08:37:50;;;;;;;;;;;16.70;57.30;;;;;;4972829;28;20044;-67
2022/03/22 08:40:16;;;;;;;;;;;17.30;57.60;;;;;;4971931;28;19957;-68
2022/03/22 08:42:45;;;;;;;;;;;17.60;56.90;;;;;;4984775;28;20000;-67
2022/03/22 08:45:14;;;;;;;;;;;17.90;55.70;;;;;;4985986;28;19918;-67
2022/03/22 08:47:40;;;;;;;;;;;18.00;55.10;;;;;;4976643;28;19937;-68
2022/03/22 08:50:09;;;;;;;;;;;18.10;54.80;;;;;;4977710;28;19950;-68
2022/03/22 08:52:35;;;;;;;;;;;18.20;53.50;;;;;;4982644;28;20011;-68
2022/03/22 08:55:01;;;;;;;;;;;18.20;54.10;;;;;;4991262;28;19913;-69
2022/03/22 08:57:26;;;;;;;;;;;18.50;53.50;;;;;;4991335;28;19910;-68
2022/03/22 08:59:52;;;;;;;;;;;18.70;52.30;;;;;;4991802;28;19941;-68
2022/03/22 09:02:17;;;;;;;;;;;18.80;52.50;;;;;;4992478;28;19909;-68
2022/03/22 09:07:27;;;;;;;;;;;18.30;52.30;;;;;;4993469;28;20354;-68
2022/03/22 09:09:53;;;;;;;;;;;18.80;50.10;;;;;;4987173;28;19906;-70
2022/03/22 09:12:18;;;;;;;;;;;18.80;49.30;;;;;;4962649;28;20131;-63
2022/03/22 09:14:44;;;;;;;;;;;19.00;78.00;;;;;;4984701;28;19906;-62
2022/03/22 09:17:10;;;;;;;;;;;20.00;78.80;;;;;;4972337;28;20244;-69
2022/03/22 09:19:36;;;;;;;;;;;20.10;60.90;;;;;;4987944;28;19973;-68
2022/03/22 09:22:03;;;;;;;;;;;19.20;50.50;;;;;;4981423;28;19909;-68
2022/03/22 09:24:29;;;;;;;;;;;18.60;50.70;;;;;;4991120;28;19914;-68
2022/03/22 09:26:54;;;;;;;;;;;17.90;51.50;;;;;;4994343;28;20277;-67
2022/03/22 09:29:20;;;;;;;;;;;18.00;51.50;;;;;;4993258;28;20473;-70
2022/03/22 09:31:46;;;;;;;;;;;19.10;50.90;;;;;;5010773;28;20075;-70
2022/03/22 09:34:13;;;;;;;;;;;19.20;48.20;;;;;;4993956;28;20008;-71
2022/03/22 09:36:38;;;;;;;;;;;18.40;49.20;;;;;;4993898;28;19928;-68
2022/03/22 09:39:05;;;;;;;;;;;18.40;48.90;;;;;;4993087;28;20323;-69
2022/03/22 09:41:30;;;;;;;;;;;18.50;49.30;;;;;;5003504;28;19992;-69
2022/03/22 09:43:56;;;;;;;;;;;19.00;49.70;;;;;;4993982;28;19976;-68
2022/03/22 09:46:22;;;;;;;;;;;19.60;50.00;;;;;;4989267;28;19953;-68
2022/03/22 09:48:48;;;;;;;;;;;19.50;48.90;;;;;;5011253;28;19909;-68
2022/03/22 09:54:00;;;;;;;;;;;19.70;48.20;;;;;;5011345;28;20011;-69
2022/03/22 09:56:30;;;;;;;;;;;18.70;48.50;;;;;;5004651;28;19956;-68
2022/03/22 09:58:56;;;;;;;;;;;18.10;49.50;;;;;;4989991;28;20363;-68
2022/03/22 10:01:22;;;;;;;;;;;19.30;49.10;;;;;;4974199;28;20064;-67
2022/03/22 10:03:58;;;;;;;;;;;19.80;49.40;;;;;;4998175;28;20354;-67
2022/03/22 10:06:23;;;;;;;;;;;20.50;48.20;;;;;;4979376;28;20012;-68
2022/03/22 10:08:50;;;;;;;;;;;21.00;47.90;;;;;;4991342;28;19949;-67
2022/03/22 10:11:16;;;;;;;;;;;21.20;47.60;;;;;;5011947;28;19932;-68
2022/03/22 10:14:02;;;;;;;;;;;21.10;47.30;;;;;;5011632;28;19913;-67
2022/03/22 10:16:27;;;;;;;;;;;19.60;48.50;;;;;;4994717;28;19905;-66
2022/03/22 10:18:53;;;;;;;;;;;18.80;49.20;;;;;;4991852;28;19906;-67
2022/03/22 10:21:19;;;;;;;;;;;19.60;49.30;;;;;;4973819;28;20003;-67
2022/03/22 10:23:53;;;;;;;;;;;20.60;49.30;;;;;;4974018;28;19925;-68
2022/03/22 10:26:19;;;;;;;;;;;21.50;48.00;;;;;;4992837;28;19936;-67
2022/03/22 10:28:52;;;;;;;;;;;21.80;46.90;;;;;;4979471;28;20000;-67
2022/03/22 10:31:18;;;;;;;;;;;21.70;46.90;;;;;;4986950;28;19910;-68
2022/03/22 10:33:50;;;;;;;;;;;22.20;46.50;;;;;;4993573;28;20326;-66
2022/03/22 10:36:18;;;;;;;;;;;22.60;46.50;;;;;;4992853;28;19906;-67
2022/03/22 10:38:57;;;;;;;;;;;22.70;46.50;;;;;;4993690;28;20335;-66
2022/03/22 10:41:24;;;;;;;;;;;22.30;44.80;;;;;;4992844;28;19987;-66
2022/03/22 10:43:59;;;;;;;;;;;20.70;45.70;;;;;;4993383;28;19913;-67
2022/03/22 10:46:28;;;;;;;;;;;20.40;46.60;;;;;;4992566;28;20162;-66
2022/03/22 10:49:00;;;;;;;;;;;21.30;46.80;;;;;;4993554;28;19905;-68
2022/03/22 10:51:56;;;;;;;;;;;22.20;46.20;;;;;;4993863;28;19932;-66
2022/03/22 10:54:22;;;;;;;;;;;22.70;46.20;;;;;;4975918;28;19917;-68
2022/03/22 10:56:49;;;;;;;;;;;23.30;45.10;;;;;;4993480;28;19909;-67
2022/03/22 10:59:16;;;;;;;;;;;23.60;45.20;;;;;;4992555;28;19910;-67
2022/03/22 11:01:43;;;;;;;;;;;23.50;43.90;;;;;;4993559;28;19945;-67
2022/03/22 11:04:09;;;;;;;;;;;23.20;44.30;;;;;;5010439;28;19941;-67
2022/03/22 11:06:36;;;;;;;;;;;22.90;44.70;;;;;;5005943;28;20351;-70
2022/03/22 11:09:02;;;;;;;;;;;22.70;43.90;;;;;;4990556;28;20330;-71
2022/03/22 11:11:30;;;;;;;;;;;22.20;45.20;;;;;;5009341;28;20317;-71
2022/03/22 11:13:55;;;;;;;;;;;21.60;45.20;;;;;;5011013;28;19911;-70
2022/03/22 11:16:24;;;;;;;;;;;22.90;45.40;;;;;;5009844;28;19992;-71
2022/03/22 11:18:50;;;;;;;;;;;23.70;44.90;;;;;;4993275;28;19905;-71
2022/03/22 11:21:16;;;;;;;;;;;23.90;43.70;;;;;;5010362;28;19906;-70
2022/03/22 11:23:44;;;;;;;;;;;24.10;43.60;;;;;;5010825;28;19917;-71
2022/03/22 11:26:11;;;;;;;;;;;23.30;43.60;;;;;;4992044;28;19910;-72
2022/03/22 11:28:38;;;;;;;;;;;22.80;44.80;;;;;;4992975;28;19967;-71
2022/03/22 11:31:05;;;;;;;;;;;23.60;44.20;;;;;;4989693;28;19914;-72
2022/03/22 11:36:16;;;;;;;;;;;23.50;43.20;;;;;;5005054;28;19956;-71
2022/03/22 11:38:44;;;;;;;;;;;23.70;43.40;;;;;;4996768;28;19916;-71
2022/03/22 11:44:03;;;;;;;;;;;23.80;43.40;;;;;;4997023;28;19929;-75
2022/03/22 11:46:32;;;;;;;;;;;23.40;43.70;;;;;;5009786;28;20202;-73
2022/03/22 11:48:57;;;;;;;;;;;23.60;44.70;;;;;;5013737;28;19913;-73
2022/03/22 11:51:23;;;;;;;;;;;24.30;43.60;;;;;;5013270;28;20292;-71
2022/03/22 11:53:49;;;;;;;;;;;24.90;43.20;;;;;;4996157;28;20284;-72
2022/03/22 11:56:25;;;;;;;;;;;24.70;43.00;;;;;;5028370;28;19910;-75
2022/03/22 11:58:51;;;;;;;;;;;24.60;42.50;;;;;;4996948;28;19909;-73
2022/03/22 12:01:17;;;;;;;;;;;22.90;42.90;;;;;;5011502;28;19918;-73
2022/03/22 12:03:49;;;;;;;;;;;22.80;43.50;;;;;;4986208;28;19933;-73
2022/03/22 12:06:17;;;;;;;;;;;22.60;42.90;;;;;;4995606;28;20044;-74
2022/03/22 12:08:42;;;;;;;;;;;23.70;43.50;;;;;;4981284;28;20138;-75
2022/03/22 12:11:11;;;;;;;;;;;22.70;42.50;;;;;;4993790;28;19945;-75
2022/03/22 12:13:48;;;;;;;;;;;22.80;43.50;;;;;;4975714;28;20224;-74
2022/03/22 12:16:13;;;;;;;;;;;23.40;42.30;;;;;;4975517;28;20417;-72
2022/03/22 12:18:40;;;;;;;;;;;23.50;42.20;;;;;;4993808;28;19973;-75
2022/03/22 12:21:15;;;;;;;;;;;23.30;43.10;;;;;;4976086;28;19912;-73
2022/03/22 12:23:40;;;;;;;;;;;24.60;42.60;;;;;;4976083;28;19924;-73
2022/03/22 12:26:07;;;;;;;;;;;25.30;42.70;;;;;;4976254;28;19910;-72
2022/03/22 12:28:32;;;;;;;;;;;25.30;41.50;;;;;;4971672;28;20279;-74
2022/03/22 12:30:58;;;;;;;;;;;25.90;41.60;;;;;;4973400;28;19981;-73
2022/03/22 12:33:24;;;;;;;;;;;26.10;40.80;;;;;;4971703;28;19906;-73
2022/03/22 12:35:50;;;;;;;;;;;25.80;41.60;;;;;;4972657;28;19997;-71
2022/03/22 12:38:18;;;;;;;;;;;26.30;41.30;;;;;;4973223;28;19908;-73
2022/03/22 12:40:45;;;;;;;;;;;26.50;41.10;;;;;;4972195;28;20025;-71
2022/03/22 12:43:19;;;;;;;;;;;26.00;40.60;;;;;;4973685;28;19917;-72
2022/03/22 12:45:46;;;;;;;;;;;26.20;40.70;;;;;;4972570;28;19921;-71
2022/03/22 12:48:14;;;;;;;;;;;26.40;40.40;;;;;;4975003;28;19930;-72
2022/03/22 12:50:40;;;;;;;;;;;26.70;39.90;;;;;;4986448;28;19906;-72
2022/03/22 12:53:05;;;;;;;;;;;25.40;40.40;;;;;;4990362;28;19992;-72
2022/03/22 12:55:31;;;;;;;;;;;25.10;40.80;;;;;;4990519;28;20016;-72
2022/03/22 12:57:58;;;;;;;;;;;24.90;40.70;;;;;;4975392;28;19906;-71
2022/03/22 13:00:24;;;;;;;;;;;25.70;40.90;;;;;;4983776;28;19909;-72
2022/03/22 13:02:49;;;;;;;;;;;25.60;41.00;;;;;;4992654;28;20252;-72
2022/03/22 13:05:22;;;;;;;;;;;26.40;41.00;;;;;;4987610;28;20013;-74
2022/03/22 13:07:48;;;;;;;;;;;25.70;39.60;;;;;;4992982;28;19909;-71
2022/03/22 13:12:57;;;;;;;;;;;26.80;40.90;;;;;;4973289;28;19917;-74
2022/03/22 13:15:23;;;;;;;;;;;27.10;40.20;;;;;;4971227;28;20312;-74
2022/03/22 13:17:52;;;;;;;;;;;26.90;39.90;;;;;;4971739;28;19937;-72
2022/03/22 13:20:24;;;;;;;;;;;26.90;40.00;;;;;;4971555;28;19957;-71
2022/03/22 13:22:53;;;;;;;;;;;27.20;39.40;;;;;;4971603;28;19905;-73
2022/03/22 13:25:25;;;;;;;;;;;27.30;39.40;;;;;;4972721;28;19921;-74
2022/03/22 13:27:58;;;;;;;;;;;26.90;39.30;;;;;;4973357;28;20005;-73
2022/03/22 13:30:25;;;;;;;;;;;27.10;39.40;;;;;;4971941;28;19964;-76
2022/03/22 13:32:50;;;;;;;;;;;26.70;38.90;;;;;;4971283;28;19956;-76
2022/03/22 13:35:18;;;;;;;;;;;26.40;39.00;;;;;;4972566;28;19906;-74
2022/03/22 13:37:48;;;;;;;;;;;26.50;38.70;;;;;;4990048;28;19916;-75
2022/03/22 13:40:13;;;;;;;;;;;26.20;38.20;;;;;;4991159;28;19906;-74
2022/03/22 13:42:58;;;;;;;;;;;24.90;38.10;;;;;;4990397;28;19906;-74
2022/03/22 13:45:23;;;;;;;;;;;24.50;39.00;;;;;;4989989;28;20004;-73
2022/03/22 13:47:51;;;;;;;;;;;25.20;38.40;;;;;;4991886;28;19952;-74
2022/03/22 13:50:25;;;;;;;;;;;25.10;38.90;;;;;;4991891;28;19914;-72
2022/03/22 13:52:59;;;;;;;;;;;25.20;39.00;;;;;;4990934;28;19909;-74
2022/03/22 13:55:26;;;;;;;;;;;25.00;39.20;;;;;;4990471;28;20020;-73
2022/03/22 13:57:52;;;;;;;;;;;24.20;38.80;;;;;;4991597;28;19975;-74
2022/03/22 14:00:19;;;;;;;;;;;24.30;38.80;;;;;;4990925;28;19941;-76
2022/03/22 14:02:45;;;;;;;;;;;24.70;38.50;;;;;;4992508;28;20224;-73
2022/03/22 14:05:10;;;;;;;;;;;23.80;39.30;;;;;;4990425;28;20008;-75
2022/03/22 14:07:36;;;;;;;;;;;25.00;40.30;;;;;;4989859;28;20242;-73
2022/03/22 14:10:03;;;;;;;;;;;25.70;39.40;;;;;;4981782;28;19961;-73
2022/03/22 14:12:28;;;;;;;;;;;26.40;39.60;;;;;;4970487;28;20329;-73
2022/03/22 14:14:54;;;;;;;;;;;25.50;39.10;;;;;;4970888;28;19997;-75
2022/03/22 14:17:19;;;;;;;;;;;25.50;38.60;;;;;;4971704;28;20064;-74
2022/03/22 14:19:45;;;;;;;;;;;25.40;38.90;;;;;;4970414;28;19961;-74
2022/03/22 14:22:10;;;;;;;;;;;25.80;39.00;;;;;;4970527;28;20004;-73
2022/03/22 14:24:36;;;;;;;;;;;25.60;39.10;;;;;;4971863;28;20241;-74
2022/03/22 14:27:02;;;;;;;;;;;23.80;39.60;;;;;;4970839;28;20256;-74
2022/03/22 14:29:27;;;;;;;;;;;24.60;39.60;;;;;;4970144;28;19973;-73
2022/03/22 14:31:53;;;;;;;;;;;24.70;38.90;;;;;;4972231;28;20005;-74
2022/03/22 14:37:04;;;;;;;;;;;25.20;38.70;;;;;;4972569;28;20045;-74
2022/03/22 14:39:30;;;;;;;;;;;25.40;39.10;;;;;;4970005;28;19920;-73
2022/03/22 14:41:56;;;;;;;;;;;25.80;39.60;;;;;;4970875;28;19997;-74
2022/03/22 14:44:22;;;;;;;;;;;26.00;38.70;;;;;;4971299;28;19918;-75
2022/03/22 14:46:51;;;;;;;;;;;25.40;38.50;;;;;;4970149;28;19976;-74
2022/03/22 14:49:18;;;;;;;;;;;25.30;38.40;;;;;;4971307;28;20228;-73
2022/03/22 14:54:30;;;;;;;;;;;25.90;38.60;;;;;;4971533;28;19985;-74
2022/03/22 14:59:40;;;;;;;;;;;25.50;38.60;;;;;;4971571;28;20089;-74
2022/03/22 15:02:05;;;;;;;;;;;25.60;38.70;;;;;;4971374;28;20020;-75
2022/03/22 15:04:31;;;;;;;;;;;24.80;38.30;;;;;;4969317;28;19922;-73